In Rescue
 
Open Full Screen Window  High Contrast Mode
Wind Gusting 15 knots
11
March 01, 2024 3:29 PM CST
Weather Information
Wind Direction
  210 °
Wind Speed
  11 kt (13 mph)
Wind Gust
  15 kt (17 mph)
Altimeter
29.70 in
Visibility
10 SM
Temperature
12° C
54° F
Dewpoint
-01° C
30° F
Humidity
41%
Sky Condition
Clear
VFR

METAR KFOZ 012129Z AUTO 21011G15KT 10SM CLR 12/M01 A2970 RMK AO2

FAA Disclaimer: The data displayed is for advisory purposes only and is not to be used for flight planning or operations.